EDT,Max TemperatureF,Mean TemperatureF,Min TemperatureF,Max Dew PointF,MeanDew PointF,Min DewpointF,Max Humidity, Mean Humidity, Min Humidity, Max Sea Level PressureIn, Mean Sea Level PressureIn, Min Sea Level PressureIn, Max VisibilityMiles, Mean VisibilityMiles, Min VisibilityMiles, Max Wind SpeedMPH, Mean Wind SpeedMPH, Max Gust SpeedMPH,PrecipitationIn, CloudCover, Events, WindDirDegrees
2012-9-1,82,70,60,63,58,51,90,74,38,30.16,30.10,30.04,10,7,0,8,1,,0.00,1,Fog,300
2012-9-2,78,70,61,63,58,52,90,69,54,30.12,30.07,30.01,10,10,4,8,2,,0.00,6,,105
2012-9-3,77,70,64,67,65,61,94,85,71,30.09,30.06,29.99,10,6,1,12,5,18,0.00,6,,136
2012-9-4,78,72,68,70,67,64,91,85,73,30.05,29.91,29.81,10,5,1,10,5,21,0.56,7,Rain,202
2012-9-5,79,71,63,66,61,57,90,79,47,29.96,29.89,29.83,10,9,2,8,4,,0.00,5,,2
2012-9-6,82,70,59,64,61,56,94,80,47,29.97,29.92,29.86,10,6,0,13,2,30,0.35,3,Fog-Rain,231
2012-9-7,80,68,57,65,60,55,93,83,52,30.00,29.93,29.77,10,5,0,10,2,,0.04,3,Fog-Rain,169
2012-9-8,72,60,48,61,55,45,93,82,66,29.85,29.68,29.56,10,7,1,24,10,40,0.57,6,Rain,266
2012-9-9,62,54,48,52,49,46,93,83,69,30.04,29.93,29.84,10,9,2,16,3,21,0.15,7,Rain,290
2012-9-10,64,53,41,47,42,37,93,70,37,30.23,30.14,30.05,10,10,3,16,4,23,0.00,2,,326
2012-9-11,71,54,37,49,42,34,90,69,39,30.32,30.29,30.23,10,10,10,9,3,,0.00,1,,206
2012-9-12,77,58,42,50,45,38,90,66,33,30.36,30.32,30.29,10,9,4,8,2,,0.00,0,,192
2012-9-13,79,62,46,57,49,44,93,77,42,30.37,30.33,30.27,10,6,1,8,2,,0.00,1,,155
2012-9-14,77,60,46,59,52,44,93,84,46,30.30,30.23,30.10,10,5,0,20,4,28,0.07,4,Fog-Rain,261
2012-9-15,66,50,37,48,42,36,93,80,45,30.29,30.24,30.18,10,5,0,15,2,20,0.00,3,Fog,298
2012-9-16,69,52,37,51,43,34,93,77,47,30.20,30.15,30.10,10,7,1,12,1,20,0.00,1,,316
2012-9-17,71,56,41,53,45,38,93,70,41,30.12,30.04,29.88,10,8,1,12,3,22,0.00,0,,153
2012-9-18,68,59,50,60,56,46,93,86,68,29.89,29.68,29.54,10,6,1,20,7,31,1.45,8,Rain,239
2012-9-19,57,47,37,45,40,32,90,75,40,30.20,30.06,29.88,10,10,6,14,6,22,0.02,4,Rain,280
2012-9-20,68,52,35,49,39,31,89,64,37,30.18,30.08,29.99,10,10,9,14,6,23,0.00,1,,155
2012-9-21,70,62,54,53,50,47,93,68,47,30.00,29.95,29.86,10,10,8,10,5,18,0.08,6,Rain,178
2012-9-22,64,55,45,56,50,41,90,80,55,29.99,29.82,29.68,10,9,2,16,9,29,0.25,7,Rain,249
2012-9-23,53,48,42,43,40,36,90,80,57,30.18,30.09,30.00,10,10,4,20,5,25,0.14,7,Rain,274
2012-9-24,55,47,39,39,37,33,93,74,45,30.22,30.16,30.07,10,9,1,12,4,,0.00,5,,238
2012-9-25,64,54,44,50,40,34,86,61,39,30.11,30.06,30.01,10,9,3,13,6,21,0.10,3,Rain,201
2012-9-26,62,57,53,58,55,50,94,89,86,30.13,30.04,29.99,10,5,0,9,6,,0.14,8,Fog-Rain,232
2012-9-27,64,54,45,56,49,41,94,80,46,30.23,30.16,30.11,10,7,1,12,3,,0.05,6,Rain,68
2012-9-28,55,52,48,51,49,46,93,88,83,30.11,30.07,30.06,10,6,1,9,5,,0.16,8,Rain,337
2012-9-29,60,50,42,46,43,39,93,79,51,30.06,30.01,29.94,10,7,0,13,2,,0.29,7,Fog-Rain,307
2012-9-30,57,48,37,46,43,35,93,82,59,29.94,29.90,29.86,10,8,1,10,2,,0.04,7,Rain,355